Air Navigation Services of Czech Republic
Airport: LKTB Updated:  21.07.2024 01:30:41  UTC
 METAR LKTB 21.07. 01:30 ...
METAR LKTB 210130Z 33003KT 300V010 CAVOK 17/14 Q1010 NOSIG=
 TAF LKTB 20.07. 23:00 ...
TAF LKTB 202300Z 2100/2200 VRB02KT CAVOK      BECMG 2108/2110 06006KT=